Time;durP1;ratioP1;P1;durP2;ratioP2;P2;SDS_P1;SDS_P2;PMS_P1;PMS_P2;Temp;Humidity;BMP_temperature;BMP_pressure;BME280_temperature;BME280_humidity;BME280_pressure;Samples;Min_cycle;Max_cycle;Signal;HPM_P1;HPM_P2
2021/04/29 03:01:05;;;;;;;15.65;10.78;;;;;;;4.01;100.00;100941.64;1752354;78;65005;-69
2021/04/29 03:03:33;;;;;;;13.98;10.03;;;;;;;4.63;100.00;100936.98;1707348;82;21489;-73
2021/04/29 03:06:01;;;;;;;14.83;10.10;;;;;;;5.09;100.00;100943.45;1692464;82;21164;-75
2021/04/29 03:08:31;;;;;;;16.45;10.93;;;;;;;5.50;100.00;100936.98;1703741;82;21062;-76
2021/04/29 03:11:00;;;;;;;14.03;9.93;;;;;;;5.94;100.00;100942.14;1692868;84;21350;-68
2021/04/29 03:13:31;;;;;;;15.05;11.10;;;;;;;6.21;100.00;100938.05;1704000;82;22544;-76
2021/04/29 03:15:59;;;;;;;15.10;11.35;;;;;;;6.53;100.00;100938.55;1693985;82;21679;-75
2021/04/29 03:18:28;;;;;;;15.32;10.55;;;;;;;7.06;100.00;100932.78;1703775;82;21197;-73
2021/04/29 03:20:57;;;;;;;11.85;9.38;;;;;;;7.61;100.00;100925.91;1703153;82;21141;-71
2021/04/29 03:23:26;;;;;;;12.98;8.30;;;;;;;8.15;100.00;100918.45;1704581;82;22141;-73
2021/04/29 03:25:55;;;;;;;12.13;9.10;;;;;;;8.71;100.00;100922.43;1703890;82;21133;-71
2021/04/29 03:28:23;;;;;;;10.30;8.13;;;;;;;9.19;100.00;100924.89;1705184;82;21097;-72
2021/04/29 03:30:51;;;;;;;11.80;8.70;;;;;;;9.71;100.00;100921.29;1704223;82;21760;-72
2021/04/29 03:33:20;;;;;;;12.50;9.40;;;;;;;10.24;100.00;100914.78;1703539;84;21667;-67
2021/04/29 03:35:49;;;;;;;14.10;9.70;;;;;;;10.74;100.00;100911.62;1703962;84;21377;-75
2021/04/29 03:38:17;;;;;;;15.07;9.50;;;;;;;11.15;100.00;100913.58;1703519;82;21979;-75
2021/04/29 03:40:46;;;;;;;13.10;8.70;;;;;;;11.53;100.00;100901.95;1703214;82;21675;-74
2021/04/29 03:43:14;;;;;;;15.13;9.93;;;;;;;11.95;100.00;100907.22;1702566;82;21847;-69
2021/04/29 03:45:43;;;;;;;11.10;8.87;;;;;;;12.25;100.00;100904.19;1704401;82;21232;-69
2021/04/29 03:48:11;;;;;;;11.97;9.40;;;;;;;12.53;100.00;100909.61;1703960;82;22208;-79
2021/04/29 03:50:41;;;;;;;13.33;9.90;;;;;;;12.93;95.68;100912.28;1703237;82;21153;-66
2021/04/29 03:53:09;;;;;;;13.20;9.37;;;;;;;13.31;92.49;100906.41;1703442;82;21212;-71
2021/04/29 03:55:38;;;;;;;13.50;10.07;;;;;;;13.69;82.24;100903.57;1704335;82;21583;-73
2021/04/29 03:58:06;;;;;;;12.50;10.17;;;;;;;13.93;74.29;100904.17;1704337;82;21446;-78
2021/04/29 04:00:34;;;;;;;12.13;9.50;;;;;;;14.10;69.98;100905.53;1703898;82;22351;-68
2021/04/29 04:03:02;;;;;;;12.67;9.37;;;;;;;14.29;68.96;100897.00;1703963;82;21540;-76
2021/04/29 04:05:31;;;;;;;12.13;8.63;;;;;;;14.56;64.16;100901.13;1704058;82;20955;-76
2021/04/29 04:08:00;;;;;;;13.17;8.47;;;;;;;14.68;59.18;100900.08;1701712;84;21577;-74
2021/04/29 04:10:28;;;;;;;11.70;8.80;;;;;;;14.81;59.30;100901.44;1703815;82;21161;-71
2021/04/29 04:12:58;;;;;;;13.37;9.43;;;;;;;15.12;57.45;100899.67;1700982;82;21176;-74
2021/04/29 04:15:26;;;;;;;12.23;8.90;;;;;;;15.35;55.92;100903.78;1702701;82;21196;-73
2021/04/29 04:17:55;;;;;;;12.33;8.10;;;;;;;15.76;54.64;100905.00;1703878;82;21153;-74
2021/04/29 04:20:24;;;;;;;10.97;8.37;;;;;;;16.19;50.36;100903.27;1703693;82;21760;-71
2021/04/29 04:22:52;;;;;;;11.97;8.33;;;;;;;16.31;47.64;100902.94;1705261;82;21176;-72
2021/04/29 04:25:21;;;;;;;13.70;9.00;;;;;;;16.23;48.21;100907.11;1702192;82;21232;-76
2021/04/29 04:27:50;;;;;;;11.00;9.13;;;;;;;16.34;48.35;100903.05;1703925;82;21188;-74
2021/04/29 04:30:20;;;;;;;12.30;9.40;;;;;;;16.51;47.33;100898.95;1701158;82;21097;-73
2021/04/29 04:32:49;;;;;;;11.87;8.80;;;;;;;16.61;45.08;100898.02;1704482;82;20959;-69
2021/04/29 04:35:18;;;;;;;12.93;8.80;;;;;;;16.55;45.02;100896.20;1703228;82;21224;-73
2021/04/29 04:37:47;;;;;;;11.13;8.53;;;;;;;16.51;44.88;100904.21;1704213;82;21395;-79
2021/04/29 04:40:15;;;;;;;12.07;9.37;;;;;;;16.68;45.66;100901.45;1704296;82;21180;-75
2021/04/29 04:42:44;;;;;;;10.10;8.50;;;;;;;17.00;44.73;100902.36;1701945;82;21227;-68
2021/04/29 04:45:12;;;;;;;11.63;8.07;;;;;;;17.22;44.19;100908.14;1704212;82;21419;-72
2021/04/29 04:47:40;;;;;;;10.73;7.93;;;;;;;17.50;43.49;100909.59;1704733;82;21140;-70
2021/04/29 04:50:10;;;;;;;10.97;8.67;;;;;;;17.82;41.22;100900.39;1702736;82;22138;-73
2021/04/29 04:52:38;;;;;;;11.57;8.00;;;;;;;18.04;41.80;100896.88;1698909;82;21155;-66
2021/04/29 04:55:07;;;;;;;10.97;7.63;;;;;;;18.43;41.19;100896.48;1702506;82;21166;-71
2021/04/29 04:57:35;;;;;;;10.03;8.00;;;;;;;18.76;38.45;100895.86;1697976;83;21165;-69
2021/04/29 05:00:05;;;;;;;8.57;7.40;;;;;;;18.70;37.11;100890.91;1712232;82;21136;-67
2021/04/29 05:02:35;;;;;;;10.00;7.83;;;;;;;18.51;37.35;100894.06;1720445;81;22380;-68
2021/04/29 05:05:08;;;;;;;10.10;7.60;;;;;;;18.37;38.17;100907.93;1692387;81;21236;-75
2021/04/29 05:07:36;;;;;;;9.70;7.33;;;;;;;18.45;38.44;100905.52;1720981;81;21139;-71
2021/04/29 05:10:06;;;;;;;8.97;7.03;;;;;;;18.50;37.84;100892.97;1727921;82;21192;-69
2021/04/29 05:12:34;;;;;;;7.67;6.33;;;;;;;18.67;37.35;100898.75;1729001;82;21382;-68
2021/04/29 05:15:04;;;;;;;7.27;6.03;;;;;;;18.78;37.34;100900.39;1719412;82;21636;-72
2021/04/29 05:17:33;;;;;;;8.10;6.43;;;;;;;18.69;37.07;100896.70;1730550;82;21220;-71
2021/04/29 05:20:01;;;;;;;7.90;5.83;;;;;;;18.56;37.24;100898.19;1708518;81;21151;-73
2021/04/29 05:22:29;;;;;;;8.30;6.03;;;;;;;18.51;37.49;100893.26;1718988;81;21207;-75
2021/04/29 05:24:57;;;;;;;8.83;6.40;;;;;;;18.67;37.89;100896.11;1726743;82;21155;-73
2021/04/29 05:27:25;;;;;;;8.73;5.80;;;;;;;18.74;37.72;100891.30;1732396;82;21299;-71
2021/04/29 05:29:54;;;;;;;8.87;5.70;;;;;;;18.66;37.74;100887.90;1732294;82;21708;-72
2021/04/29 05:32:22;;;;;;;9.03;5.03;;;;;;;18.73;37.60;100891.82;1731869;82;21088;-72
2021/04/29 05:34:50;;;;;;;7.90;5.57;;;;;;;19.00;37.80;100888.34;1720523;82;21199;-72
2021/04/29 05:37:19;;;;;;;9.27;6.37;;;;;;;18.93;37.13;100890.25;1725645;82;21145;-71
2021/04/29 05:39:47;;;;;;;10.73;6.03;;;;;;;18.53;37.31;100892.02;1721098;82;21338;-71
2021/04/29 05:42:15;;;;;;;7.33;4.60;;;;;;;18.33;38.79;100895.36;1726937;82;21184;-72
2021/04/29 05:44:44;;;;;;;5.63;4.10;;;;;;;18.42;38.46;100891.43;1729901;82;21914;-73
2021/04/29 05:47:12;;;;;;;6.90;3.83;;;;;;;18.52;38.43;100886.42;1700355;83;21168;-75
2021/04/29 05:49:42;;;;;;;5.80;4.17;;;;;;;18.59;38.23;100892.45;1699763;82;21075;-75
2021/04/29 05:52:11;;;;;;;6.57;4.23;;;;;;;18.69;37.34;100887.46;1728603;81;21233;-74
2021/04/29 05:54:41;;;;;;;;;;;;;;;18.80;37.56;100885.95;1691276;83;21044;-75
2021/04/29 05:57:09;;;;;;;6.03;3.70;;;;;;;18.79;37.84;100894.08;1718452;81;20228;-75
2021/04/29 05:59:38;;;;;;;6.27;3.63;;;;;;;18.71;37.72;100885.94;1715935;82;21561;-75
2021/04/29 06:02:07;;;;;;;7.47;4.50;;;;;;;18.80;37.55;100885.15;1712180;82;21133;-67
2021/04/29 06:04:37;;;;;;;7.45;4.28;;;;;;;19.00;38.85;100888.34;1687789;83;21219;-71
2021/04/29 06:07:05;;;;;;;6.30;3.87;;;;;;;19.20;37.50;100886.74;1688821;83;21303;-73
2021/04/29 06:09:35;;;;;;;7.80;3.90;;;;;;;19.25;36.56;100884.77;1708304;82;21179;-67
2021/04/29 06:14:45;;;;;;;5.80;3.58;;;;;;;19.32;35.40;100884.14;1724034;80;21581;-70
2021/04/29 06:17:13;;;;;;;5.33;4.20;;;;;;;19.38;36.03;100891.17;1730058;80;21773;-69
2021/04/29 06:19:42;;;;;;;6.23;4.03;;;;;;;19.54;34.57;100891.05;1752192;79;21129;-73
2021/04/29 06:22:10;;;;;;;5.50;3.60;;;;;;;19.54;34.31;100889.72;1758308;79;21223;-73
2021/04/29 06:24:38;;;;;;;6.70;3.77;;;;;;;19.49;35.13;100888.28;1753763;79;21144;-69
2021/04/29 06:27:07;;;;;;;7.50;3.70;;;;;;;19.56;33.38;100895.08;1758299;79;21399;-69
2021/04/29 06:29:36;;;;;;;4.33;2.90;;;;;;;19.29;33.98;100893.86;1763810;79;21213;-71
2021/04/29 06:32:05;;;;;;;6.47;3.00;;;;;;;19.09;33.52;100890.98;1759281;79;21557;-65
2021/04/29 06:34:33;;;;;;;5.43;2.53;;;;;;;19.13;32.49;100909.31;1764041;79;21587;-73
2021/04/29 06:37:02;;;;;;;5.67;3.13;;;;;;;19.08;31.13;100891.98;1724864;80;21893;-68
2021/04/29 06:39:31;;;;;;;4.80;2.87;;;;;;;19.01;32.28;100884.66;1727856;80;21004;-70
2021/04/29 06:41:59;;;;;;;5.03;2.70;;;;;;;19.20;31.96;100884.91;1694520;82;22417;-65
2021/04/29 06:44:27;;;;;;;6.13;2.27;;;;;;;19.27;31.83;100886.14;1738577;80;21194;-69
2021/04/29 06:46:57;;;;;;;5.20;2.87;;;;;;;19.11;30.78;100884.94;1688019;82;21508;-66
2021/04/29 06:49:28;;;;;;;3.63;2.30;;;;;;;18.93;29.80;100897.66;1738433;81;21077;-75
2021/04/29 06:51:57;;;;;;;3.50;2.05;;;;;;;18.68;29.73;100889.02;1725869;82;21203;-65
2021/04/29 06:54:26;;;;;;;3.20;1.87;;;;;;;18.45;30.37;100891.80;1757890;79;21256;-69
2021/04/29 06:56:54;;;;;;;2.87;1.67;;;;;;;18.12;30.70;100888.68;1752377;79;21486;-68
2021/04/29 06:59:23;;;;;;;2.60;1.60;;;;;;;17.67;32.06;100902.80;1760287;79;21100;-72
2021/04/29 07:01:52;;;;;;;3.80;1.77;;;;;;;17.60;31.38;100898.59;1776797;79;21198;-66
2021/04/29 07:04:22;;;;;;;2.77;1.50;;;;;;;17.64;31.66;100901.90;1779037;79;21192;-67
2021/04/29 07:06:50;;;;;;;2.53;1.30;;;;;;;17.95;31.66;100894.48;1774515;79;22436;-66
2021/04/29 07:09:18;;;;;;;3.37;1.90;;;;;;;18.15;30.71;100910.16;1774689;80;21034;-67
2021/04/29 07:11:46;;;;;;;2.97;1.70;;;;;;;17.97;31.48;100887.17;1774223;79;21077;-68
2021/04/29 07:14:15;;;;;;;2.30;1.43;;;;;;;18.10;31.72;100907.86;1774431;79;21223;-68
2021/04/29 07:16:43;;;;;;;3.63;1.57;;;;;;;18.13;30.58;100902.95;1757101;79;21073;-70
2021/04/29 07:19:11;;;;;;;3.20;1.60;;;;;;;18.08;31.74;100896.73;1749775;79;21461;-67
2021/04/29 07:21:40;;;;;;;4.07;1.80;;;;;;;18.11;31.42;100883.11;1749443;79;21214;-73
2021/04/29 07:24:08;;;;;;;3.00;1.60;;;;;;;18.11;31.93;100883.92;1762173;79;21614;-69
2021/04/29 07:26:37;;;;;;;5.03;1.60;;;;;;;18.20;31.26;100874.69;1752277;79;21223;-68
2021/04/29 07:29:05;;;;;;;3.40;1.53;;;;;;;18.25;31.07;100876.66;1749839;79;21137;-65
2021/04/29 07:31:34;;;;;;;2.60;1.50;;;;;;;18.38;30.85;100867.30;1753202;79;22315;-72
2021/04/29 07:34:04;;;;;;;2.70;1.47;;;;;;;18.36;31.14;100879.90;1760684;79;21176;-74
2021/04/29 07:36:33;;;;;;;2.53;1.30;;;;;;;18.26;29.91;100869.55;1756125;78;21013;-69
2021/04/29 07:39:03;;;;;;;3.50;1.50;;;;;;;18.07;30.04;100884.06;1720682;80;21476;-67
2021/04/29 07:41:31;;;;;;;4.25;2.08;;;;;;;18.02;30.47;100868.05;1700522;81;21236;-70
2021/04/29 07:44:03;;;;;;;3.80;1.57;;;;;;;18.30;30.34;100877.35;1721958;80;22379;-69
2021/04/29 07:46:45;;;;;;;2.50;1.30;;;;;;;18.38;29.98;100877.06;1741238;80;21042;-67
2021/04/29 07:49:13;;;;;;;3.47;1.40;;;;;;;18.23;29.46;100875.58;1757140;79;21045;-69
2021/04/29 07:51:41;;;;;;;3.73;1.77;;;;;;;18.07;29.11;100881.42;1766914;79;21226;-68
2021/04/29 07:54:13;;;;;;;4.00;1.50;;;;;;;17.86;29.54;100881.28;1776125;79;21128;-70
2021/04/29 07:56:41;;;;;;;4.00;1.90;;;;;;;17.89;29.65;100872.95;1776951;79;21244;-67
2021/04/29 07:59:10;;;;;;;2.87;1.63;;;;;;;18.11;30.30;100869.41;1760465;80;21298;-65
2021/04/29 08:01:40;;;;;;;2.47;1.53;;;;;;;18.37;30.23;100871.47;1772402;79;21248;-69
2021/04/29 08:04:08;;;;;;;2.80;1.70;;;;;;;18.57;28.52;100867.31;1772574;79;21583;-71
2021/04/29 08:06:38;;;;;;;3.67;1.43;;;;;;;18.56;28.64;100870.47;1776997;80;21189;-66
2021/04/29 08:09:08;;;;;;;3.00;1.50;;;;;;;18.40;28.47;100865.23;1727408;82;21160;-69
2021/04/29 08:11:36;;;;;;;2.47;1.47;;;;;;;18.26;29.11;100865.59;1734644;80;21923;-67
2021/04/29 08:14:05;;;;;;;4.03;1.23;;;;;;;18.30;29.30;100897.95;1703425;82;21159;-71
2021/04/29 08:16:33;;;;;;;4.47;2.00;;;;;;;18.20;29.30;100874.69;1764501;79;21157;-65
2021/04/29 08:19:02;;;;;;;4.00;1.33;;;;;;;18.23;29.81;100868.97;1754473;80;21144;-67
2021/04/29 08:21:32;;;;;;;2.37;1.45;;;;;;;18.32;29.07;100859.45;1756688;79;22148;-67
2021/04/29 08:24:00;;;;;;;2.57;1.50;;;;;;;18.50;29.11;100855.50;1732213;81;21237;-74
2021/04/29 08:26:29;;;;;;;4.30;1.47;;;;;;;18.71;29.28;100865.65;1711143;81;21174;-69
2021/04/29 08:28:58;;;;;;;2.93;1.43;;;;;;;18.57;29.36;100854.91;1736956;82;21156;-69
2021/04/29 08:31:26;;;;;;;3.80;2.20;;;;;;;18.53;29.65;100864.81;1762543;79;21219;-69
2021/04/29 08:33:55;;;;;;;3.23;1.90;;;;;;;18.64;30.05;100847.72;1771169;79;22743;-68
2021/04/29 08:36:23;;;;;;;4.10;1.73;;;;;;;18.92;30.09;100850.34;1735101;81;21104;-72
2021/04/29 08:38:51;;;;;;;2.77;1.73;;;;;;;19.07;29.40;100845.46;1719523;81;21179;-72
2021/04/29 08:41:21;;;;;;;2.77;1.40;;;;;;;19.08;30.45;100851.03;1718772;81;21587;-67
2021/04/29 08:43:49;;;;;;;2.50;1.50;;;;;;;18.91;30.12;100856.14;1770326;79;21220;-67
2021/04/29 08:46:19;;;;;;;2.67;1.43;;;;;;;18.62;30.02;100848.95;1766805;80;21197;-77
2021/04/29 08:48:55;;;;;;;3.00;1.50;;;;;;;18.37;30.77;100836.66;1766857;79;21400;-72
2021/04/29 08:51:24;;;;;;;3.43;1.50;;;;;;;18.20;29.97;100840.37;1769530;79;21423;-66
2021/04/29 08:53:54;;;;;;;2.37;1.40;;;;;;;18.01;30.81;100844.55;1767877;79;21196;-69
2021/04/29 08:56:25;;;;;;;;;;;;;;;17.91;31.29;100840.55;1771456;79;21090;-67
2021/04/29 08:58:57;;;;;;;2.75;1.57;;;;;;;18.05;31.20;100839.92;1769026;79;21190;-66
2021/04/29 09:01:25;;;;;;;2.12;1.17;;;;;;;18.07;30.44;100837.89;1716082;82;21188;-65
2021/04/29 09:03:54;;;;;;;3.17;1.60;;;;;;;17.89;29.95;100823.34;1707843;83;21176;-70
2021/04/29 09:06:31;;;;;;;2.80;1.40;;;;;;;17.80;30.46;100831.22;1735025;82;21200;-66
2021/04/29 09:09:00;;;;;;;8.30;2.57;;;;;;;17.85;30.26;100816.90;1734592;82;21466;-68
2021/04/29 09:11:28;;;;;;;4.27;2.30;;;;;;;18.10;31.04;100821.59;1735354;82;21538;-68
2021/04/29 09:14:03;;;;;;;3.90;2.47;;;;;;;18.41;29.66;100825.95;1736999;82;21124;-71
2021/04/29 09:16:42;;;;;;;4.07;1.90;;;;;;;18.52;29.09;100820.42;1745513;80;21243;-73
2021/04/29 09:19:22;;;;;;;3.90;1.90;;;;;;;18.53;29.29;100808.06;1700213;82;21042;-68
2021/04/29 09:21:50;;;;;;;4.13;1.80;;;;;;;18.56;30.18;100811.06;1742868;80;21168;-72
2021/04/29 09:24:18;;;;;;;2.97;1.97;;;;;;;18.59;29.80;100809.27;1747348;81;21195;-66
2021/04/29 09:26:46;;;;;;;4.70;1.80;;;;;;;18.63;30.90;100794.59;1740752;81;21136;-68
2021/04/29 09:29:15;;;;;;;2.90;1.47;;;;;;;18.73;30.38;100803.34;1745123;81;21056;-68
2021/04/29 09:31:48;;;;;;;2.50;1.70;;;;;;;18.62;29.85;100810.16;1701938;82;21123;-70
2021/04/29 09:34:18;;;;;;;2.90;1.57;;;;;;;18.44;29.73;100801.73;1744949;81;21207;-65
2021/04/29 09:36:46;;;;;;;2.70;1.60;;;;;;;18.25;30.00;100801.45;1743662;81;22182;-67
2021/04/29 09:39:17;;;;;;;3.33;1.60;;;;;;;18.21;29.90;100793.16;1711019;83;21806;-68
2021/04/29 09:41:50;;;;;;;4.22;1.72;;;;;;;18.39;30.38;100787.60;1712269;82;21111;-68
2021/04/29 09:44:23;;;;;;;7.07;1.60;;;;;;;18.71;29.74;100793.51;1739845;81;21188;-66
2021/04/29 09:47:01;;;;;;;4.17;1.73;;;;;;;18.86;29.97;100783.86;1726627;80;21117;-66
2021/04/29 09:49:35;;;;;;;3.00;1.80;;;;;;;18.96;28.66;100786.26;1736924;82;21199;-76
2021/04/29 09:52:16;;;;;;;5.20;2.07;;;;;;;18.89;28.52;100787.38;1731502;81;21201;-68
2021/04/29 09:54:45;;;;;;;;;;;;;;;18.85;28.94;100785.70;1784744;79;21588;-67
2021/04/29 09:57:19;;;;;;;2.80;1.57;;;;;;;18.85;29.35;100773.81;1772913;79;20211;-68
2021/04/29 10:02:28;;;;;;;4.03;2.10;;;;;;;18.99;29.72;100778.92;1799770;76;23471;-65
2021/04/29 10:04:59;;;;;;;3.35;1.62;;;;;;;18.83;30.88;100779.05;1774026;79;21028;-66
2021/04/29 10:07:27;;;;;;;3.20;1.50;;;;;;;18.75;30.96;100765.63;1777124;78;21175;-65
2021/04/29 10:09:56;;;;;;;3.33;1.73;;;;;;;18.80;30.69;100755.73;1773588;79;21532;-64
2021/04/29 10:12:24;;;;;;;3.50;1.77;;;;;;;18.92;30.49;100771.09;1778799;79;20990;-65
2021/04/29 10:14:53;;;;;;;3.87;2.00;;;;;;;18.89;29.98;100765.73;1771237;79;21007;-66
2021/04/29 10:17:22;;;;;;;4.10;1.60;;;;;;;18.69;30.73;100755.42;1760925;78;22172;-64
2021/04/29 10:19:53;;;;;;;5.00;1.70;;;;;;;18.73;30.49;100768.22;1785991;79;21360;-65
2021/04/29 10:22:25;;;;;;;4.80;1.62;;;;;;;18.76;30.22;100752.73;1731701;80;21601;-64
2021/04/29 10:24:55;;;;;;;3.97;1.47;;;;;;;18.75;30.90;100768.27;1722632;82;21419;-67
2021/04/29 10:27:27;;;;;;;2.90;1.90;;;;;;;18.66;30.57;100754.55;1730804;82;21088;-67
2021/04/29 10:30:09;;;;;;;2.90;1.80;;;;;;;18.60;29.90;100744.06;1729139;82;21025;-64
2021/04/29 10:32:38;;;;;;;4.00;1.73;;;;;;;18.48;30.03;100750.09;1724187;82;21363;-64
2021/04/29 10:35:21;;;;;;;3.80;1.80;;;;;;;18.39;30.27;100759.88;1743388;81;21566;-64
2021/04/29 10:38:00;;;;;;;2.70;1.60;;;;;;;18.23;30.66;100738.35;1723448;80;21216;-76
2021/04/29 10:40:37;;;;;;;3.60;1.80;;;;;;;18.23;30.00;100727.80;1716542;82;21164;-73
2021/04/29 10:43:08;;;;;;;3.70;2.20;;;;;;;18.32;30.90;100736.72;1715645;82;21214;-73
2021/04/29 10:45:37;;;;;;;3.10;2.02;;;;;;;18.57;31.27;100728.70;1732325;80;22279;-73
2021/04/29 10:48:10;;;;;;;4.50;2.00;;;;;;;18.86;30.74;100722.59;1742706;79;21132;-66
2021/04/29 10:50:47;;;;;;;3.23;2.03;;;;;;;19.08;30.90;100721.55;1752738;79;21231;-71
2021/04/29 10:53:30;;;;;;;3.43;1.80;;;;;;;19.20;30.17;100724.20;1720533;82;21089;-74
2021/04/29 10:56:14;;;;;;;3.07;1.90;;;;;;;19.14;29.30;100704.80;1823733;78;22984;-69
2021/04/29 10:58:44;;;;;;;3.40;1.80;;;;;;;19.11;29.45;100710.53;1777426;77;21560;-68
2021/04/29 11:01:20;;;;;;;3.70;2.43;;;;;;;19.22;29.58;100712.09;1738464;82;21966;-74
2021/04/29 11:03:51;;;;;;;2.97;1.90;;;;;;;19.27;29.36;100705.59;1716888;82;22190;-68
2021/04/29 11:06:33;;;;;;;3.80;2.00;;;;;;;19.29;29.96;100711.48;1726871;82;21022;-68
2021/04/29 11:09:03;;;;;;;3.37;1.80;;;;;;;19.41;29.48;100712.28;1710638;82;21239;-76
2021/04/29 11:11:34;;;;;;;4.93;1.87;;;;;;;19.34;29.24;100706.30;1720797;82;21357;-69
2021/04/29 11:14:16;;;;;;;3.20;1.83;;;;;;;19.20;30.44;100705.70;1730589;81;22120;-69
2021/04/29 11:16:52;;;;;;;4.90;1.63;;;;;;;19.14;29.14;100699.51;1729470;81;20954;-76
2021/04/29 11:19:48;;;;;;;4.27;1.50;;;;;;;19.10;29.31;100690.43;1734356;80;21484;-73
2021/04/29 11:22:42;;;;;;;4.13;1.80;;;;;;;19.23;29.91;100692.04;1736253;81;21094;-77
2021/04/29 11:25:10;;;;;;;2.87;1.60;;;;;;;19.49;29.00;100688.13;1725602;80;21228;-67
2021/04/29 11:27:40;;;;;;;4.07;1.97;;;;;;;19.43;28.74;100689.04;1729576;82;22169;-68
2021/04/29 11:30:13;;;;;;;2.93;1.87;;;;;;;19.22;28.70;100688.31;1726966;80;21144;-73
2021/04/29 11:32:59;;;;;;;2.77;1.80;;;;;;;18.90;29.37;100683.32;1740487;81;21996;-68
2021/04/29 11:35:30;;;;;;;3.93;1.60;;;;;;;18.76;29.40;100680.10;1746120;81;21184;-72
2021/04/29 11:37:58;;;;;;;2.33;1.40;;;;;;;18.78;30.26;100681.98;1715150;82;21085;-69
2021/04/29 11:40:29;;;;;;;3.07;1.23;;;;;;;18.92;30.28;100675.98;1717352;82;21328;-68
2021/04/29 11:42:58;;;;;;;2.08;1.15;;;;;;;19.20;29.86;100681.92;1719830;82;21655;-70
2021/04/29 11:45:39;;;;;;;4.63;2.30;;;;;;;19.29;29.66;100671.83;1712976;82;21523;-71
2021/04/29 11:48:10;;;;;;;2.37;1.37;;;;;;;19.25;30.51;100675.97;1716782;82;21446;-67
2021/04/29 11:50:52;;;;;;;2.37;1.45;;;;;;;19.30;29.14;100671.59;1748320;81;21156;-68
2021/04/29 11:53:29;;;;;;;3.77;1.20;;;;;;;19.15;28.48;100672.05;1731482;81;21356;-71
2021/04/29 11:55:59;;;;;;;5.10;1.30;;;;;;;18.96;28.63;100666.05;1743300;81;21205;-69
2021/04/29 11:58:27;;;;;;;1.95;1.20;;;;;;;19.03;28.91;100663.31;1743746;81;20990;-67
2021/04/29 12:00:56;;;;;;;2.20;1.23;;;;;;;19.19;28.67;100658.66;1726071;81;21551;-67
2021/04/29 12:03:27;;;;;;;4.03;1.70;;;;;;;19.31;28.03;100653.88;1724474;82;21220;-67
2021/04/29 12:08:44;;;;;;;2.40;1.10;;;;;;;19.24;28.41;100645.27;1793245;78;23213;-70
2021/04/29 12:11:13;;;;;;;2.07;1.00;;;;;;;19.10;28.66;100652.12;1781711;79;21009;-68
2021/04/29 12:13:46;;;;;;;2.67;1.20;;;;;;;19.05;28.82;100636.13;1767373;80;21783;-68
2021/04/29 12:16:22;;;;;;;2.23;1.27;;;;;;;19.16;29.05;100640.61;1762249;80;21002;-68
2021/04/29 12:18:53;;;;;;;2.83;1.33;;;;;;;19.12;28.74;100638.14;1759331;80;21101;-77
2021/04/29 12:21:22;;;;;;;2.80;1.40;;;;;;;19.05;29.61;100637.45;1713356;83;21026;-70
2021/04/29 12:24:01;;;;;;;2.23;1.30;;;;;;;19.24;28.89;100636.02;1719320;81;21453;-78
2021/04/29 12:26:40;;;;;;;3.57;1.20;;;;;;;19.33;28.51;100633.33;1709019;83;22970;-68
2021/04/29 12:29:11;;;;;;;3.13;1.53;;;;;;;19.25;27.87;100623.91;1719524;82;21022;-68
2021/04/29 12:31:52;;;;;;;2.72;1.40;;;;;;;19.07;28.44;100627.98;1720011;81;21058;-70
2021/04/29 12:34:22;;;;;;;3.43;1.70;;;;;;;19.00;28.83;100625.97;1686957;83;21191;-70
2021/04/29 12:37:03;;;;;;;2.13;0.90;;;;;;;19.05;29.27;100633.48;1716126;83;21210;-70
2021/04/29 12:39:35;;;;;;;3.00;1.37;;;;;;;19.06;28.43;100627.71;1714635;83;21214;-68
2021/04/29 12:42:06;;;;;;;2.87;1.30;;;;;;;18.96;28.37;100622.46;1715184;83;21218;-66
2021/04/29 12:44:45;;;;;;;1.80;1.07;;;;;;;18.82;28.57;100622.39;1706556;83;21128;-68
2021/04/29 12:47:29;;;;;;;2.87;1.47;;;;;;;18.68;28.40;100627.06;1709498;82;21490;-69
2021/04/29 12:50:06;;;;;;;2.90;1.33;;;;;;;18.62;28.84;100621.88;1705207;83;21190;-68
2021/04/29 12:52:48;;;;;;;2.23;1.23;;;;;;;18.64;28.38;100631.72;1708370;83;21378;-68
2021/04/29 12:55:21;;;;;;;2.97;1.13;;;;;;;18.54;28.27;100617.73;1703917;83;21177;-68
2021/04/29 12:57:51;;;;;;;3.07;1.00;;;;;;;18.42;28.04;100616.91;1697857;83;21225;-69
2021/04/29 13:00:21;;;;;;;2.90;1.40;;;;;;;18.28;28.51;100612.84;1714629;83;21203;-69
2021/04/29 13:02:49;;;;;;;3.30;1.23;;;;;;;18.22;27.77;100621.13;1709753;83;21243;-70
2021/04/29 13:05:22;;;;;;;3.23;1.50;;;;;;;18.19;28.38;100625.56;1669815;83;21291;-78
2021/04/29 13:07:51;;;;;;;5.17;1.37;;;;;;;18.27;28.04;100627.88;1692060;83;21510;-73
2021/04/29 13:10:21;;;;;;;3.20;1.37;;;;;;;18.33;28.01;100623.52;1685172;83;21165;-70
2021/04/29 13:12:58;;;;;;;1.97;1.03;;;;;;;18.35;28.33;100608.28;1690975;83;21230;-72
2021/04/29 13:15:30;;;;;;;3.23;1.17;;;;;;;18.52;28.14;100605.27;1688114;83;21280;-72
2021/04/29 13:17:58;;;;;;;;;;;;;;;18.76;28.10;100601.39;1690752;83;21367;-75
2021/04/29 13:20:32;;;;;;;2.80;1.30;;;;;;;18.97;27.87;100606.09;1699733;83;20570;-69
2021/04/29 13:23:00;;;;;;;4.60;1.70;;;;;;;18.97;26.49;100602.13;1697406;83;21579;-70
2021/04/29 13:25:31;;;;;;;2.40;1.40;;;;;;;18.86;26.84;100597.13;1705662;83;21251;-69
2021/04/29 13:28:00;;;;;;;1.55;1.02;;;;;;;18.81;27.11;100595.70;1700655;83;21047;-72
2021/04/29 13:30:29;;;;;;;1.73;1.13;;;;;;;18.74;26.12;100599.48;1700247;83;21236;-76
2021/04/29 13:32:57;;;;;;;3.07;1.40;;;;;;;18.64;26.33;100600.83;1709504;82;21710;-70
2021/04/29 13:35:26;;;;;;;2.90;1.23;;;;;;;18.59;26.47;100596.73;1702937;83;21217;-69
2021/04/29 13:37:55;;;;;;;2.73;1.40;;;;;;;18.62;26.50;100594.95;1702098;83;21178;-76
2021/04/29 13:40:25;;;;;;;2.70;1.10;;;;;;;18.62;26.35;100598.92;1709964;83;21205;-74
2021/04/29 13:42:53;;;;;;;2.30;1.30;;;;;;;18.56;27.24;100595.05;1710719;82;21243;-69
2021/04/29 13:45:22;;;;;;;1.80;1.07;;;;;;;18.54;26.61;100595.30;1721671;82;21508;-74
2021/04/29 13:47:50;;;;;;;2.77;1.10;;;;;;;18.45;27.00;100588.75;1699098;82;21662;-72
2021/04/29 13:50:21;;;;;;;2.25;1.20;;;;;;;18.38;26.93;100582.77;1700892;83;21163;-74
2021/04/29 13:52:49;;;;;;;3.23;1.50;;;;;;;18.33;27.32;100588.69;1714724;83;21702;-70
2021/04/29 13:55:18;;;;;;;3.47;1.33;;;;;;;18.27;27.11;100579.06;1718393;83;23558;-70
2021/04/29 13:57:46;;;;;;;3.43;1.30;;;;;;;18.28;27.65;100576.70;1710339;83;21306;-70
2021/04/29 14:00:16;;;;;;;2.67;1.30;;;;;;;18.28;27.81;100577.22;1718420;82;21171;-68
2021/04/29 14:02:44;;;;;;;3.60;1.33;;;;;;;18.21;27.91;100579.95;1717096;83;22492;-71
2021/04/29 14:05:14;;;;;;;8.50;7.70;;;;;;;18.12;28.01;100574.20;1699908;83;22390;-68
2021/04/29 14:07:43;;;;;;;9.98;7.62;;;;;;;18.10;28.41;100580.20;1724839;80;21376;-69
2021/04/29 14:10:13;;;;;;;3.17;1.57;;;;;;;18.10;28.58;100580.20;1707529;83;21653;-78
2021/04/29 14:12:41;;;;;;;3.70;1.30;;;;;;;18.07;28.29;100581.16;1699407;83;21252;-75
2021/04/29 14:15:12;;;;;;;3.97;1.70;;;;;;;18.08;28.38;100569.08;1696970;83;21187;-69
2021/04/29 14:17:41;;;;;;;3.83;2.17;;;;;;;18.10;28.71;100574.92;1703381;83;21203;-70
2021/04/29 14:20:12;;;;;;;5.83;2.83;;;;;;;18.05;29.21;100569.52;1697669;83;22235;-69
2021/04/29 14:22:41;;;;;;;3.43;1.57;;;;;;;18.04;29.28;100569.24;1729271;82;21172;-68
2021/04/29 14:25:11;;;;;;;7.27;2.97;;;;;;;18.07;29.31;100562.20;1725994;82;21216;-71
2021/04/29 14:27:40;;;;;;;4.87;3.62;;;;;;;18.04;29.36;100566.61;1760411;80;28616;-76
2021/04/29 14:30:10;;;;;;;4.83;3.10;;;;;;;18.01;29.08;100561.77;1765051;80;21134;-69
2021/04/29 14:32:39;;;;;;;5.17;3.13;;;;;;;18.01;29.08;100557.81;1765161;80;22256;-70
2021/04/29 14:35:09;;;;;;;4.67;2.30;;;;;;;17.97;28.84;100555.34;1755382;80;21608;-71
2021/04/29 14:37:38;;;;;;;3.90;2.20;;;;;;;17.83;28.85;100555.22;1763617;80;21245;-77
2021/04/29 14:40:08;;;;;;;4.03;2.40;;;;;;;17.66;29.15;100559.77;1768842;80;21203;-72
2021/04/29 14:42:36;;;;;;;9.23;3.30;;;;;;;17.49;29.47;100567.98;1765809;80;21157;-72
2021/04/29 14:45:07;;;;;;;3.20;1.53;;;;;;;17.37;29.75;100559.20;1705481;82;22376;-70
2021/04/29 14:47:38;;;;;;;4.83;2.60;;;;;;;17.26;29.53;100554.95;1696470;83;21159;-68